Time;durP1;ratioP1;P1;durP2;ratioP2;P2;SDS_P1;SDS_P2;PMS_P1;PMS_P2;Temp;Humidity;BMP_temperature;BMP_pressure;BME280_temperature;BME280_humidity;BME280_pressure;Samples;Min_cycle;Max_cycle;Signal;HPM_P1;HPM_P2
2023/03/22 00:00:43;;;;;;;10.70;9.80;;;;;;;14.44;58.55;97745.56;8377443;28;20492;-68
2023/03/22 00:04:46;;;;;;;9.90;8.90;;;;;;;14.48;58.21;97746.22;8377509;28;20243;-68
2023/03/22 00:08:50;;;;;;;9.60;8.70;;;;;;;14.41;58.60;97750.97;8377474;28;20258;-68
2023/03/22 00:12:54;;;;;;;10.13;9.13;;;;;;;14.43;58.75;97749.13;8377466;28;20233;-68
2023/03/22 00:16:57;;;;;;;10.10;9.17;;;;;;;14.37;58.77;97741.66;8377361;28;20222;-68
2023/03/22 00:21:00;;;;;;;10.63;9.53;;;;;;;14.40;59.07;97738.88;8377053;28;20228;-68
2023/03/22 00:25:03;;;;;;;9.50;8.53;;;;;;;14.37;59.28;97733.84;8377134;28;20232;-67
2023/03/22 00:29:07;;;;;;;9.97;9.00;;;;;;;14.32;58.83;97722.06;8377040;28;20255;-68
2023/03/22 00:33:10;;;;;;;11.03;9.93;;;;;;;14.28;58.72;97718.84;8376812;28;20229;-67
2023/03/22 00:37:15;;;;;;;11.13;10.03;;;;;;;14.19;59.18;97716.81;8376787;28;20227;-68
2023/03/22 00:41:19;;;;;;;10.43;9.53;;;;;;;14.20;58.87;97713.25;8376825;28;20370;-68
2023/03/22 00:45:23;;;;;;;11.10;9.93;;;;;;;14.04;59.33;97709.00;8376938;28;20225;-68
2023/03/22 00:49:26;;;;;;;9.77;8.87;;;;;;;14.00;58.97;97717.13;8376569;28;20233;-68
2023/03/22 00:53:31;;;;;;;9.93;9.03;;;;;;;14.03;58.39;97712.56;8376544;28;20436;-68
2023/03/22 00:57:35;;;;;;;9.53;8.57;;;;;;;13.94;58.48;97713.13;8376091;28;20238;-68
2023/03/22 01:01:39;;;;;;;9.73;8.10;;;;;;;13.84;58.10;97693.78;8376670;28;20238;-68
2023/03/22 01:05:44;;;;;;;8.23;7.53;;;;;;;13.87;57.99;97707.44;8381257;28;20227;-68
2023/03/22 01:09:48;;;;;;;8.20;7.40;;;;;;;13.87;57.94;97697.03;8382929;28;20236;-68
2023/03/22 01:13:51;;;;;;;7.87;7.17;;;;;;;13.74;57.79;97697.91;8382585;28;20232;-68
2023/03/22 01:17:55;;;;;;;8.60;7.50;;;;;;;13.71;58.12;97698.94;8382733;28;20238;-68
2023/03/22 01:21:58;;;;;;;8.03;7.33;;;;;;;13.63;58.29;97695.94;8382578;28;20227;-68
2023/03/22 01:26:01;;;;;;;8.00;7.27;;;;;;;13.67;58.28;97693.06;8382488;28;20266;-68
2023/03/22 01:30:04;;;;;;;7.83;6.77;;;;;;;13.59;58.23;97678.84;8382588;28;20531;-67
2023/03/22 01:34:09;;;;;;;8.67;7.50;;;;;;;13.41;58.71;97680.81;8382387;28;20253;-67
2023/03/22 01:38:12;;;;;;;7.93;7.23;;;;;;;13.44;58.52;97685.81;8382689;28;20231;-67
2023/03/22 01:42:15;;;;;;;8.17;7.37;;;;;;;13.33;59.11;97680.41;8382446;28;20437;-67
2023/03/22 01:46:18;;;;;;;8.80;7.50;;;;;;;13.35;58.41;97676.81;8382212;28;20255;-67
2023/03/22 01:50:23;;;;;;;8.37;7.33;;;;;;;13.10;59.48;97670.44;8382017;28;20360;-67
2023/03/22 01:54:30;;;;;;;7.90;7.20;;;;;;;13.20;58.84;97664.72;8382074;28;20231;-67
2023/03/22 01:58:34;;;;;;;8.17;7.37;;;;;;;13.32;58.35;97670.97;8380078;28;20477;-67
2023/03/22 02:02:37;;;;;;;7.70;7.00;;;;;;;13.28;57.80;97671.09;8379772;28;20306;-67
2023/03/22 02:06:42;;;;;;;8.07;7.03;;;;;;;13.30;57.88;97663.25;8379515;28;20231;-68
2023/03/22 02:10:45;;;;;;;8.20;7.40;;;;;;;13.27;58.10;97669.44;8379278;28;20223;-68
2023/03/22 02:14:59;;;;;;;8.17;7.37;;;;;;;13.30;57.97;97658.88;8379792;28;20231;-67
2023/03/22 02:19:28;;;;;;;10.07;8.80;;;;;;;13.20;58.52;97664.72;8380180;28;20242;-67
2023/03/22 02:23:59;;;;;;;8.90;8.10;;;;;;;13.10;58.92;97649.66;8378214;28;20504;-67
2023/03/22 02:28:30;;;;;;;8.63;7.73;;;;;;;13.24;58.39;97655.78;8379322;28;20226;-68
2023/03/22 02:32:48;;;;;;;8.73;7.83;;;;;;;13.02;59.02;97649.28;8377667;28;20229;-67
2023/03/22 02:37:11;;;;;;;8.43;7.63;;;;;;;13.07;58.86;97649.81;8378270;28;20237;-68
2023/03/22 02:41:18;;;;;;;9.00;7.80;;;;;;;13.01;59.32;97641.56;8379365;28;20233;-68
2023/03/22 02:45:26;;;;;;;8.87;7.97;;;;;;;13.08;59.22;97645.47;8378865;28;20232;-68
2023/03/22 02:49:34;;;;;;;8.13;7.33;;;;;;;12.74;60.50;97644.00;8378745;28;20225;-67
2023/03/22 02:53:43;;;;;;;8.20;7.40;;;;;;;13.00;59.10;97645.91;8378448;28;20447;-67
2023/03/22 02:57:49;;;;;;;10.67;7.83;;;;;;;12.73;59.25;97614.59;8331426;28;1356621;-67
2023/03/22 03:01:54;;;;;;;8.03;7.33;;;;;;;12.90;58.44;97642.19;8379835;28;20427;-68
2023/03/22 03:05:59;;;;;;;8.03;7.07;;;;;;;12.94;58.35;97638.47;8379335;28;20393;-68
2023/03/22 03:10:02;;;;;;;7.40;6.80;;;;;;;12.89;57.97;97623.19;8379729;28;20359;-68
2023/03/22 03:14:20;;;;;;;7.50;6.80;;;;;;;12.89;57.40;97635.34;8379478;28;20230;-68
2023/03/22 03:18:34;;;;;;;8.50;7.50;;;;;;;12.68;57.43;97625.28;8379051;28;20226;-68
2023/03/22 03:22:46;;;;;;;8.37;7.50;;;;;;;12.72;57.51;97623.34;8378936;28;20226;-67
2023/03/22 03:26:55;;;;;;;7.60;6.93;;;;;;;12.32;57.38;97563.31;8377563;28;20239;-67
2023/03/22 03:31:05;;;;;;;8.20;7.40;;;;;;;12.68;56.98;97633.06;8377326;28;20375;-67
2023/03/22 03:35:16;;;;;;;8.37;7.67;;;;;;;12.58;57.31;97634.50;8378444;28;20372;-68
2023/03/22 03:39:20;;;;;;;8.17;7.37;;;;;;;12.45;57.43;97624.00;8378236;28;20233;-68
2023/03/22 03:43:24;;;;;;;8.00;7.23;;;;;;;12.69;57.20;97646.88;8378288;28;20229;-67
2023/03/22 03:47:30;;;;;;;7.60;6.90;;;;;;;12.69;57.26;97642.50;8378060;28;20224;-67
2023/03/22 03:51:33;;;;;;;9.10;7.20;;;;;;;12.70;57.63;97641.59;8378388;28;20239;-67
2023/03/22 03:55:36;;;;;;;8.67;7.50;;;;;;;12.59;57.84;97640.56;8377513;28;20225;-67
2023/03/22 03:59:39;;;;;;;8.00;7.40;;;;;;;12.70;57.76;97646.81;8377956;28;20225;-67
2023/03/22 04:03:43;;;;;;;8.60;7.80;;;;;;;12.50;57.83;97641.91;8377336;28;20548;-67
2023/03/22 04:07:46;;;;;;;7.67;6.97;;;;;;;12.55;57.86;97645.09;8376683;28;20240;-68
2023/03/22 04:11:51;;;;;;;8.13;7.30;;;;;;;12.54;58.14;97643.41;8377381;28;20535;-67
2023/03/22 04:15:56;;;;;;;8.47;7.47;;;;;;;12.56;57.43;97651.94;8377034;28;20240;-67
2023/03/22 04:20:01;;;;;;;7.93;7.20;;;;;;;12.51;57.00;97647.03;8377110;28;20553;-67
2023/03/22 04:24:07;;;;;;;7.47;6.67;;;;;;;12.37;56.96;97638.34;8376645;28;20225;-67
2023/03/22 04:28:12;;;;;;;7.63;6.80;;;;;;;12.43;56.82;97650.97;8376774;28;20235;-69
2023/03/22 04:32:17;;;;;;;8.47;7.03;;;;;;;12.37;56.99;97649.56;8376860;28;20237;-69
2023/03/22 04:36:22;;;;;;;8.10;7.30;;;;;;;12.29;56.87;97641.38;8376334;28;20311;-68
2023/03/22 04:40:25;;;;;;;7.83;7.03;;;;;;;12.26;56.91;97639.78;8376627;28;20485;-67
2023/03/22 04:44:28;;;;;;;8.23;7.43;;;;;;;12.22;56.77;97634.84;8376547;28;20256;-67
2023/03/22 04:48:31;;;;;;;7.27;6.63;;;;;;;12.18;56.62;97633.34;8376449;28;20240;-68
2023/03/22 04:52:35;;;;;;;7.83;7.13;;;;;;;12.18;56.83;97628.16;8376319;28;20232;-68
2023/03/22 04:56:38;;;;;;;7.40;6.70;;;;;;;12.10;56.59;97637.19;8376430;28;20522;-68
2023/03/22 05:00:41;;;;;;;8.20;7.40;;;;;;;12.09;56.94;97627.75;8376410;28;20236;-68
2023/03/22 05:04:44;;;;;;;8.30;7.50;;;;;;;12.10;57.10;97636.38;8375675;28;20237;-68
2023/03/22 05:08:52;;;;;;;12.87;10.93;;;;;;;11.99;57.23;97646.50;8375865;28;20229;-68
2023/03/22 05:12:54;;;;;;;12.57;11.00;;;;;;;11.63;58.39;97638.03;8375690;28;20248;-67
2023/03/22 05:16:57;;;;;;;10.83;8.97;;;;;;;11.74;58.04;97627.88;8375660;28;20229;-67
2023/03/22 05:21:02;;;;;;;9.00;8.10;;;;;;;11.97;57.21;97628.44;8376057;28;20233;-68
2023/03/22 05:25:11;;;;;;;9.57;7.70;;;;;;;11.79;57.96;97627.66;8376298;28;20246;-67
2023/03/22 05:29:14;;;;;;;9.07;8.17;;;;;;;11.92;56.89;97614.88;8376027;28;20226;-68
2023/03/22 05:33:20;;;;;;;10.37;9.37;;;;;;;11.85;56.80;97606.56;8376098;28;20520;-67
2023/03/22 05:37:23;;;;;;;10.40;9.40;;;;;;;12.07;56.44;97615.78;8376124;28;20225;-68
2023/03/22 05:41:30;;;;;;;10.67;9.57;;;;;;;12.05;57.27;97612.44;8376075;28;20248;-68
2023/03/22 05:45:35;;;;;;;11.83;9.63;;;;;;;12.10;56.65;97597.44;8376473;28;20229;-67
2023/03/22 05:49:41;;;;;;;10.57;8.97;;;;;;;12.40;56.15;97614.81;8377998;28;20464;-67
2023/03/22 05:53:44;;;;;;;9.60;8.70;;;;;;;12.33;56.94;97609.94;8381492;28;20255;-68
2023/03/22 05:57:50;;;;;;;9.40;8.40;;;;;;;12.58;55.87;97616.31;8382084;28;20236;-69
2023/03/22 06:01:53;;;;;;;9.20;8.30;;;;;;;12.73;55.84;97612.00;8382368;28;20229;-68
2023/03/22 06:05:56;;;;;;;9.43;8.53;;;;;;;13.01;55.52;97615.56;8382037;28;20232;-68
2023/03/22 06:09:58;;;;;;;8.90;8.03;;;;;;;13.36;54.69;97597.84;8382136;28;20430;-69
2023/03/22 06:14:03;;;;;;;9.67;7.80;;;;;;;13.59;54.11;97590.41;8382449;28;20232;-66
2023/03/22 06:18:06;;;;;;;8.97;8.07;;;;;;;13.61;53.61;97584.19;8381974;28;20238;-67
2023/03/22 06:22:09;;;;;;;8.20;7.40;;;;;;;14.20;52.83;97606.47;8381532;28;20241;-68
2023/03/22 06:26:11;;;;;;;8.10;7.20;;;;;;;14.41;51.97;97594.69;8381980;28;20293;-68
2023/03/22 06:30:16;;;;;;;8.43;7.63;;;;;;;14.71;51.87;97604.00;8381248;28;20230;-67
2023/03/22 06:34:19;;;;;;;8.20;7.03;;;;;;;15.25;50.67;97603.81;8380770;28;20235;-68
2023/03/22 06:38:22;;;;;;;8.67;7.00;;;;;;;15.49;49.42;97597.00;8380585;28;20236;-68
2023/03/22 06:42:24;;;;;;;9.53;7.40;;;;;;;15.57;49.88;97605.97;8380521;28;20254;-68
2023/03/22 06:46:29;;;;;;;8.30;6.63;;;;;;;15.51;49.88;97605.56;8380756;28;20227;-68
2023/03/22 06:50:32;;;;;;;7.50;6.80;;;;;;;15.78;49.32;97603.66;8380156;28;20239;-68
2023/03/22 06:54:35;;;;;;;9.07;7.20;;;;;;;14.77;51.63;97606.19;8380403;28;20431;-68
2023/03/22 06:58:37;;;;;;;7.30;6.53;;;;;;;15.17;51.14;97613.09;8380091;28;20512;-68
2023/03/22 07:02:42;;;;;;;7.93;6.67;;;;;;;15.75;49.38;97609.06;8378910;28;20547;-68
2023/03/22 07:06:45;;;;;;;6.27;5.77;;;;;;;16.05;48.32;97610.44;8379319;28;20545;-68
2023/03/22 07:10:49;;;;;;;8.43;5.80;;;;;;;16.09;48.04;97613.63;8379624;28;20242;-68
2023/03/22 07:14:52;;;;;;;6.10;5.60;;;;;;;16.75;46.82;97614.88;8379541;28;20235;-68
2023/03/22 07:18:56;;;;;;;6.37;5.77;;;;;;;17.10;46.46;97621.84;8379267;28;20221;-68
2023/03/22 07:22:59;;;;;;;6.50;5.17;;;;;;;17.25;45.47;97627.69;8378885;28;20332;-68
2023/03/22 07:27:02;;;;;;;5.83;5.00;;;;;;;17.36;44.94;97627.69;8378988;28;20223;-68
2023/03/22 07:31:08;;;;;;;5.67;4.77;;;;;;;17.71;44.45;97608.38;8378962;28;20228;-68
2023/03/22 07:35:13;;;;;;;5.93;4.83;;;;;;;18.00;43.51;97609.69;8378963;28;20220;-68
2023/03/22 07:39:15;;;;;;;5.60;5.03;;;;;;;18.25;42.54;97616.38;8378951;28;20237;-68
2023/03/22 07:43:18;;;;;;;5.30;4.77;;;;;;;18.21;41.82;97622.84;8378493;28;20240;-68
2023/03/22 07:47:22;;;;;;;5.47;4.40;;;;;;;18.33;41.31;97614.81;8378671;28;20328;-68
2023/03/22 07:51:43;;;;;;;4.90;4.47;;;;;;;18.42;41.80;97623.69;8378252;28;20247;-68
2023/03/22 07:55:47;;;;;;;4.33;4.03;;;;;;;18.35;41.89;97622.53;8378303;28;20241;-68
2023/03/22 07:59:50;;;;;;;4.63;4.23;;;;;;;18.92;40.79;97625.72;8378164;28;20232;-68
2023/03/22 08:03:53;;;;;;;5.50;4.63;;;;;;;18.66;41.31;97578.88;8378392;28;20291;-68
2023/03/22 08:07:57;;;;;;;4.70;4.30;;;;;;;19.11;41.21;97617.16;8377755;28;20237;-68
2023/03/22 08:12:02;;;;;;;5.10;4.30;;;;;;;19.61;39.96;97608.50;8377611;28;20529;-68
2023/03/22 08:16:06;;;;;;;5.27;4.47;;;;;;;19.85;39.37;97631.84;8377845;28;20232;-68
2023/03/22 08:20:12;;;;;;;4.53;4.13;;;;;;;20.05;38.41;97628.31;8376086;28;20227;-68
2023/03/22 08:24:17;;;;;;;4.73;3.80;;;;;;;20.09;38.59;97623.59;8377097;28;20374;-69
2023/03/22 08:28:19;;;;;;;5.60;3.93;;;;;;;20.25;38.42;97618.63;8377299;28;20575;-68
2023/03/22 08:32:22;;;;;;;4.70;3.60;;;;;;;20.60;48.17;97626.97;8377120;28;20221;-69
2023/03/22 08:36:26;;;;;;;4.47;3.57;;;;;;;20.04;45.27;97625.81;8376855;28;20223;-68
2023/03/22 08:40:30;;;;;;;4.13;3.77;;;;;;;20.55;39.18;97616.84;8376711;28;20258;-68
2023/03/22 08:44:33;;;;;;;5.07;3.33;;;;;;;20.67;38.33;97621.00;8377223;28;20388;-68
2023/03/22 08:48:37;;;;;;;5.73;3.80;;;;;;;19.45;39.14;97622.97;8376868;28;20241;-68
2023/03/22 08:52:42;;;;;;;3.90;3.60;;;;;;;19.79;37.79;97619.25;8376797;28;20242;-69
2023/03/22 08:56:47;;;;;;;3.00;2.70;;;;;;;20.36;39.24;97606.31;8376301;28;20235;-69
2023/03/22 09:00:50;;;;;;;3.67;3.03;;;;;;;20.65;35.65;97615.03;8376749;28;20331;-70
2023/03/22 09:04:53;;;;;;;3.63;2.50;;;;;;;21.62;34.50;97597.34;8376477;28;20540;-69
2023/03/22 09:08:56;;;;;;;2.83;2.23;;;;;;;21.88;32.83;97609.84;8376200;28;20233;-69
2023/03/22 09:13:00;;;;;;;4.67;2.20;;;;;;;21.77;32.62;97603.78;8376516;28;20247;-69
2023/03/22 09:17:03;;;;;;;2.27;2.00;;;;;;;21.84;33.34;97591.66;8376728;28;20224;-69
2023/03/22 09:21:07;;;;;;;3.27;1.80;;;;;;;22.10;32.82;97596.19;8376389;28;20232;-69
2023/03/22 09:25:10;;;;;;;3.17;1.77;;;;;;;22.05;32.51;97596.66;8379138;28;20232;-69
2023/03/22 09:29:18;;;;;;;2.37;1.80;;;;;;;22.43;32.34;97604.47;8383284;28;20256;-70
2023/03/22 09:33:21;;;;;;;1.63;1.53;;;;;;;22.86;31.86;97604.63;8383464;28;20225;-69
2023/03/22 09:37:29;;;;;;;1.63;1.50;;;;;;;22.94;31.92;97575.63;8383245;28;20438;-69
2023/03/22 09:41:36;;;;;;;1.80;1.70;;;;;;;22.05;32.24;97588.75;8382855;28;20228;-69
2023/03/22 09:45:44;;;;;;;2.10;1.83;;;;;;;22.09;31.72;97585.84;8383100;28;20413;-69
2023/03/22 09:49:49;;;;;;;2.40;2.10;;;;;;;22.17;31.89;97585.91;8382428;28;20259;-69
2023/03/22 09:53:56;;;;;;;2.50;2.30;;;;;;;21.75;31.99;97579.38;8382409;28;20229;-69
2023/03/22 09:58:04;;;;;;;1.80;1.57;;;;;;;22.07;31.49;97562.25;8382145;28;20233;-69
2023/03/22 10:02:38;;;;;;;2.33;1.63;;;;;;;21.80;32.47;97571.88;8382262;28;20221;-69
2023/03/22 10:06:44;;;;;;;1.73;1.40;;;;;;;21.94;31.13;97559.97;8382117;28;20221;-69
2023/03/22 10:10:48;;;;;;;1.87;1.57;;;;;;;21.94;30.52;97562.59;8380962;28;20236;-69
2023/03/22 10:14:54;;;;;;;1.60;1.40;;;;;;;22.21;31.15;97563.53;8381985;28;20225;-69
2023/03/22 10:19:04;;;;;;;1.37;1.20;;;;;;;23.06;29.46;97552.50;8381496;28;20237;-69
2023/03/22 10:23:11;;;;;;;2.17;1.30;;;;;;;23.13;28.47;97561.41;8381132;28;20237;-68
2023/03/22 10:27:17;;;;;;;2.27;1.10;;;;;;;22.51;28.33;97564.13;8380040;28;20229;-69
2023/03/22 10:31:20;;;;;;;2.77;1.60;;;;;;;22.05;29.63;97530.75;8381442;28;20228;-69
2023/03/22 10:35:24;;;;;;;2.37;1.40;;;;;;;23.18;29.04;97545.94;8379854;28;20597;-69
2023/03/22 10:39:30;;;;;;;1.60;1.10;;;;;;;21.60;31.37;97544.78;8380679;28;20225;-70
2023/03/22 10:43:38;;;;;;;1.53;1.20;;;;;;;22.43;30.21;97523.50;8380935;28;20509;-70
2023/03/22 10:47:44;;;;;;;2.30;1.30;;;;;;;23.26;28.94;97529.28;8379818;28;20233;-69
2023/03/22 10:51:50;;;;;;;1.60;1.20;;;;;;;23.27;28.99;97529.13;8380548;28;20343;-70
2023/03/22 10:55:53;;;;;;;1.33;1.20;;;;;;;22.82;29.23;97531.00;8380276;28;20243;-70
2023/03/22 10:59:58;;;;;;;1.50;1.37;;;;;;;23.30;28.86;97538.56;8380189;28;20233;-70
2023/03/22 11:04:07;;;;;;;2.33;1.30;;;;;;;23.28;29.11;97524.69;8379360;28;20233;-70
2023/03/22 11:08:14;;;;;;;1.47;1.37;;;;;;;23.35;28.53;97531.81;8379693;28;20237;-68
2023/03/22 11:12:17;;;;;;;2.00;1.67;;;;;;;22.74;29.01;97528.34;8379538;28;20378;-68
2023/03/22 11:16:20;;;;;;;1.47;1.10;;;;;;;23.62;28.96;97514.88;8379690;28;20236;-68
2023/03/22 11:20:23;;;;;;;2.10;1.40;;;;;;;23.41;29.51;97522.41;8379308;28;20229;-69
2023/03/22 11:24:29;;;;;;;1.77;1.50;;;;;;;22.59;29.74;97522.78;8379292;28;20465;-68
2023/03/22 11:28:46;;;;;;;1.37;1.27;;;;;;;23.45;28.92;97504.44;8379393;28;20232;-69
2023/03/22 11:32:51;;;;;;;1.60;1.30;;;;;;;24.15;28.80;97517.31;8378697;28;20236;-69
2023/03/22 11:36:56;;;;;;;2.23;1.40;;;;;;;24.34;28.11;97510.84;8379121;28;20419;-68
2023/03/22 11:41:05;;;;;;;1.40;1.20;;;;;;;23.80;27.68;97511.31;8378388;28;20320;-68
2023/03/22 11:45:11;;;;;;;1.80;1.33;;;;;;;24.23;27.05;97509.38;8378626;28;20229;-68
2023/03/22 11:49:14;;;;;;;1.90;1.47;;;;;;;23.74;27.00;97504.84;8377681;28;20240;-69
2023/03/22 11:53:19;;;;;;;1.33;1.20;;;;;;;23.82;27.57;97501.41;8378454;28;20239;-69
2023/03/22 11:57:25;;;;;;;2.83;1.43;;;;;;;24.24;27.26;97502.25;8378222;28;20232;-69
2023/03/22 12:01:34;;;;;;;2.40;1.40;;;;;;;23.39;27.47;97495.31;8378330;28;20224;-69
2023/03/22 12:05:38;;;;;;;4.83;1.40;;;;;;;22.59;28.79;97496.41;8377840;28;20233;-68
2023/03/22 12:09:44;;;;;;;2.67;1.47;;;;;;;22.95;29.04;97487.53;8377540;28;20468;-68
2023/03/22 12:13:55;;;;;;;1.97;1.40;;;;;;;23.08;28.78;97487.97;8377804;28;20233;-70
2023/03/22 12:18:02;;;;;;;1.67;1.43;;;;;;;23.53;28.66;97485.94;8377965;28;20243;-69
2023/03/22 12:22:11;;;;;;;1.80;1.50;;;;;;;24.15;28.55;97469.69;8377592;28;20233;-69
2023/03/22 12:26:16;;;;;;;1.93;1.30;;;;;;;24.13;27.78;97476.97;8377512;28;20239;-69
2023/03/22 12:30:22;;;;;;;3.10;1.50;;;;;;;24.41;26.91;97472.16;8377264;28;20244;-69
2023/03/22 12:34:33;;;;;;;3.10;1.47;;;;;;;23.74;26.66;97453.78;8377479;28;20229;-69
2023/03/22 12:38:40;;;;;;;1.63;1.50;;;;;;;22.82;27.52;97464.19;8377208;28;20623;-69
2023/03/22 12:42:48;;;;;;;2.37;1.50;;;;;;;22.20;28.99;97469.53;8376849;28;20240;-68
2023/03/22 12:47:00;;;;;;;1.30;1.20;;;;;;;22.72;29.37;97463.50;8376639;28;20235;-69
2023/03/22 12:51:06;;;;;;;1.67;1.47;;;;;;;23.19;28.79;97450.69;8382151;28;20225;-69
2023/03/22 12:55:20;;;;;;;1.70;1.60;;;;;;;22.84;28.24;97444.56;8377041;28;20428;-69
2023/03/22 12:59:24;;;;;;;4.30;1.70;;;;;;;22.14;29.91;97444.66;8379750;28;20236;-69
2023/03/22 13:03:36;;;;;;;2.37;1.40;;;;;;;21.97;30.53;97438.41;8383503;28;20228;-69
2023/03/22 13:07:51;;;;;;;2.40;1.43;;;;;;;21.65;30.42;97436.34;8382849;28;20303;-70
2023/03/22 13:12:29;;;;;;;1.73;1.20;;;;;;;21.72;30.61;97421.56;8383162;28;20233;-69
2023/03/22 13:16:50;;;;;;;1.13;1.00;;;;;;;22.12;30.51;97432.56;8382767;28;20224;-69
2023/03/22 13:25:37;;;;;;;2.07;1.20;;;;;;;22.74;29.72;97412.19;8375832;27;20568;-68
2023/03/22 13:29:40;;;;;;;5.87;1.30;;;;;;;22.73;29.24;97423.75;8373469;28;20229;-68
2023/03/22 13:33:43;;;;;;;3.07;0.90;;;;;;;23.00;29.39;97412.16;8372585;28;20548;-68
2023/03/22 13:37:49;;;;;;;2.10;0.90;;;;;;;23.29;28.98;97403.00;8372998;28;20240;-67
2023/03/22 13:42:06;;;;;;;1.03;0.90;;;;;;;23.40;28.33;97407.16;8372181;28;20305;-68
2023/03/22 13:46:29;;;;;;;1.43;1.00;;;;;;;23.03;28.19;97397.81;8372476;28;20224;-68
2023/03/22 13:50:34;;;;;;;1.00;0.70;;;;;;;22.56;29.01;97399.09;8372106;28;20240;-68
2023/03/22 13:54:40;;;;;;;1.23;1.00;;;;;;;22.01;28.34;97394.94;8371921;28;20232;-68
2023/03/22 13:58:52;;;;;;;0.90;0.90;;;;;;;22.57;28.93;97398.09;8371365;28;20287;-67
2023/03/22 14:02:55;;;;;;;0.90;0.90;;;;;;;22.26;28.88;97384.59;8371337;28;20247;-68
2023/03/22 14:06:59;;;;;;;1.60;0.93;;;;;;;21.80;28.20;97376.84;8371832;28;20237;-68
2023/03/22 14:11:10;;;;;;;1.67;0.97;;;;;;;21.98;28.55;97382.06;8371706;28;20244;-67
2023/03/22 14:15:18;;;;;;;1.13;0.73;;;;;;;21.91;28.22;97374.94;8371096;28;20568;-68
2023/03/22 14:19:23;;;;;;;0.87;0.87;;;;;;;21.90;28.20;97362.75;8372022;28;20414;-69
2023/03/22 14:23:29;;;;;;;2.33;0.97;;;;;;;21.25;27.42;97369.09;8371341;28;20364;-68
2023/03/22 14:27:33;;;;;;;1.10;0.90;;;;;;;21.35;27.90;97367.19;8371634;28;20529;-69
2023/03/22 14:31:37;;;;;;;1.87;0.80;;;;;;;21.25;28.82;97366.44;8372177;28;20237;-69
2023/03/22 14:35:41;;;;;;;0.97;0.90;;;;;;;21.27;28.62;97362.69;8355349;28;20347;-69
2023/03/22 14:39:45;;;;;;;2.03;0.90;;;;;;;21.29;29.21;97352.00;8348473;28;20316;-68
2023/03/22 14:43:48;;;;;;;1.07;0.80;;;;;;;21.36;29.24;97349.59;8348335;28;20229;-69
2023/03/22 14:47:54;;;;;;;1.00;0.70;;;;;;;21.36;28.88;97345.16;8348681;28;20256;-70
2023/03/22 14:51:56;;;;;;;1.03;0.80;;;;;;;20.87;29.86;97347.31;8347197;28;20287;-69
2023/03/22 14:55:57;;;;;;;2.73;0.90;;;;;;;20.82;29.97;97347.72;8346967;28;20229;-69
2023/03/22 15:00:05;;;;;;;1.77;0.80;;;;;;;20.77;30.69;97342.09;8346496;28;20237;-70
2023/03/22 15:04:09;;;;;;;1.20;0.80;;;;;;;21.42;30.46;97341.91;8346687;28;20234;-70
2023/03/22 15:08:12;;;;;;;0.73;0.70;;;;;;;21.06;30.12;97351.63;8346564;28;20237;-69
2023/03/22 15:12:15;;;;;;;1.07;0.87;;;;;;;21.25;30.76;97353.28;8346162;28;20225;-70
2023/03/22 15:16:20;;;;;;;1.23;0.77;;;;;;;20.94;29.88;97348.34;8346100;28;20229;-70
2023/03/22 15:20:27;;;;;;;1.53;0.93;;;;;;;20.81;30.36;97342.59;8346115;28;20229;-70
2023/03/22 15:24:30;;;;;;;0.70;0.70;;;;;;;20.62;30.31;97351.44;8345535;28;20234;-70
2023/03/22 15:28:37;;;;;;;0.77;0.70;;;;;;;20.41;29.84;97344.59;8345756;28;20234;-69
2023/03/22 15:32:41;;;;;;;0.90;0.80;;;;;;;20.39;30.23;97338.66;8345501;28;20236;-70
2023/03/22 15:36:48;;;;;;;2.07;0.77;;;;;;;20.33;30.15;97333.97;8346966;28;20229;-69
2023/03/22 15:40:51;;;;;;;0.70;0.70;;;;;;;20.54;30.74;97331.09;8346753;28;20249;-72
2023/03/22 15:44:55;;;;;;;0.77;0.70;;;;;;;20.14;30.75;97324.34;8344420;28;20248;-70
2023/03/22 15:49:00;;;;;;;0.83;0.70;;;;;;;20.40;31.26;97327.16;8345095;28;20233;-70
2023/03/22 15:53:03;;;;;;;2.30;0.90;;;;;;;20.43;31.25;97320.78;8344277;28;20234;-70
2023/03/22 15:57:09;;;;;;;1.00;0.90;;;;;;;20.43;31.19;97326.06;8346884;28;20390;-70
2023/03/22 16:01:16;;;;;;;1.43;0.93;;;;;;;20.47;31.43;97314.25;8344536;28;20236;-71
2023/03/22 16:05:18;;;;;;;0.80;0.80;;;;;;;20.51;31.08;97320.88;8344514;28;20500;-70
2023/03/22 16:09:21;;;;;;;0.77;0.73;;;;;;;20.33;31.51;97317.38;8344809;28;20284;-70
2023/03/22 16:13:24;;;;;;;1.83;0.73;;;;;;;20.19;32.03;97311.59;8344468;28;20229;-70
2023/03/22 16:17:26;;;;;;;0.73;0.73;;;;;;;20.46;32.24;97309.97;8343999;28;20255;-70
2023/03/22 16:21:30;;;;;;;2.33;0.80;;;;;;;20.25;32.10;97320.72;8344102;28;20237;-70
2023/03/22 16:25:33;;;;;;;0.83;0.80;;;;;;;20.18;32.62;97312.59;8345368;28;20236;-70
2023/03/22 16:29:35;;;;;;;1.27;0.90;;;;;;;20.11;33.03;97316.75;8343931;28;20236;-69
2023/03/22 16:33:37;;;;;;;0.87;0.87;;;;;;;20.08;33.34;97317.03;8343531;28;20403;-69
2023/03/22 16:37:39;;;;;;;2.47;1.40;;;;;;;19.94;33.25;97307.00;8343398;28;20240;-69
2023/03/22 16:41:42;;;;;;;6.30;5.17;;;;;;;19.95;33.51;97319.97;8343852;28;20240;-70
2023/03/22 16:45:47;;;;;;;2.93;2.70;;;;;;;19.94;34.65;97318.34;8343137;28;20230;-69
2023/03/22 16:49:50;;;;;;;1.53;1.03;;;;;;;19.63;34.25;97323.75;8343669;28;20335;-70
2023/03/22 16:53:52;;;;;;;1.10;1.00;;;;;;;19.77;34.67;97329.59;8343529;28;20259;-70
2023/03/22 16:57:56;;;;;;;1.97;1.40;;;;;;;19.65;34.62;97329.69;8343472;28;20297;-68
2023/03/22 17:01:57;;;;;;;2.00;1.83;;;;;;;19.65;35.13;97334.97;8343847;28;20236;-69
2023/03/22 17:05:59;;;;;;;29.40;2.87;;;;;;;19.57;35.58;97336.63;8343562;28;20307;-69
2023/03/22 17:10:02;;;;;;;5.85;2.00;;;;;;;19.53;38.35;97328.19;8343899;28;20527;-68
2023/03/22 17:14:05;;;;;;;3.50;2.60;;;;;;;19.96;35.75;97329.53;8341500;28;20411;-69
2023/03/22 17:18:09;;;;;;;2.90;1.93;;;;;;;19.34;37.20;97327.25;8343466;28;20220;-70
2023/03/22 17:22:12;;;;;;;2.70;1.80;;;;;;;19.19;37.36;97333.88;8343011;28;20252;-70
2023/03/22 17:26:14;;;;;;;1.80;1.50;;;;;;;19.07;37.68;97340.22;8342764;28;20228;-70
2023/03/22 17:30:17;;;;;;;1.73;1.40;;;;;;;19.00;36.87;97333.84;8342721;28;20359;-70
2023/03/22 17:34:19;;;;;;;2.10;1.70;;;;;;;18.92;37.43;97337.16;8342598;28;20349;-70
2023/03/22 17:38:21;;;;;;;2.37;2.10;;;;;;;18.83;38.07;97336.19;8342005;28;20440;-69
2023/03/22 17:42:23;;;;;;;4.13;1.90;;;;;;;18.72;38.54;97338.88;8341745;28;20427;-70
2023/03/22 17:46:29;;;;;;;3.83;2.60;;;;;;;18.64;38.88;97344.78;8342959;28;20222;-70
2023/03/22 17:50:32;;;;;;;2.07;1.90;;;;;;;18.48;39.46;97347.91;8341892;28;20236;-70
2023/03/22 17:54:35;;;;;;;3.37;2.20;;;;;;;18.37;39.97;97350.63;8342642;28;20265;-71
2023/03/22 17:58:36;;;;;;;5.10;2.60;;;;;;;18.30;40.98;97354.75;8342024;28;20497;-71
2023/03/22 18:02:40;;;;;;;4.27;3.37;;;;;;;18.20;40.96;97362.56;8341842;28;20229;-71
2023/03/22 18:06:43;;;;;;;3.70;3.40;;;;;;;18.12;41.77;97354.50;8341401;28;20272;-69
2023/03/22 18:10:45;;;;;;;4.13;3.77;;;;;;;18.02;41.24;97356.25;8346141;28;20233;-70
2023/03/22 18:14:46;;;;;;;5.97;3.80;;;;;;;18.01;41.80;97362.44;8348281;28;20549;-70
2023/03/22 18:18:50;;;;;;;5.93;4.00;;;;;;;17.94;42.29;97365.59;8347933;28;20237;-70
2023/03/22 18:22:52;;;;;;;6.47;5.07;;;;;;;17.87;43.34;97368.84;8348084;28;20226;-71
2023/03/22 18:26:57;;;;;;;7.57;6.77;;;;;;;17.72;42.98;97378.78;8348371;28;20543;-71
2023/03/22 18:30:59;;;;;;;6.73;5.53;;;;;;;17.56;43.18;97371.38;8347570;28;20229;-71
2023/03/22 18:35:03;;;;;;;11.67;9.07;;;;;;;17.58;41.99;97372.88;8348006;28;20535;-71
2023/03/22 18:39:05;;;;;;;4.00;3.60;;;;;;;17.43;41.99;97374.16;8347606;28;20228;-71
2023/03/22 18:43:06;;;;;;;2.37;2.17;;;;;;;17.33;42.28;97371.44;8347081;28;20257;-71
2023/03/22 18:47:13;;;;;;;3.37;1.50;;;;;;;17.35;41.91;97379.19;8346922;28;20258;-71
2023/03/22 18:51:16;;;;;;;1.63;1.40;;;;;;;17.42;42.01;97376.88;8346912;28;20233;-71
2023/03/22 18:55:18;;;;;;;23.27;10.00;;;;;;;17.50;45.07;97382.34;8347214;28;20222;-70
2023/03/22 18:59:20;;;;;;;1.63;1.53;;;;;;;17.34;42.73;97377.50;8348128;28;20298;-71
2023/03/22 19:03:22;;;;;;;6.03;5.43;;;;;;;17.32;42.50;97379.41;8346209;28;20525;-70
2023/03/22 19:07:26;;;;;;;7.13;4.50;;;;;;;17.25;42.59;97376.50;8346149;28;20299;-70
2023/03/22 19:11:30;;;;;;;5.90;5.30;;;;;;;17.11;43.87;97382.00;8346480;28;20301;-70
2023/03/22 19:15:32;;;;;;;9.70;8.70;;;;;;;16.98;43.87;97356.81;8346229;28;20229;-70